Time;durP1;ratioP1;P1;durP2;ratioP2;P2;SDS_P1;SDS_P2;PMS_P1;PMS_P2;Temp;Humidity;BMP_temperature;BMP_pressure;BME280_temperature;BME280_humidity;BME280_pressure;Samples;Min_cycle;Max_cycle;Signal;HPM_P1;HPM_P2
2023/03/06 00:00:34;;;;;;;3.35;1.70;;;;;;;4.38;100.00;100877.22;4961593;28;20026;-80
2023/03/06 00:03:03;;;;;;;2.90;1.50;;;;;;;4.44;100.00;100875.00;4961376;28;20038;-80
2023/03/06 00:05:29;;;;;;;2.28;1.30;;;;;;;4.40;100.00;100867.31;4977357;28;20436;-80
2023/03/06 00:07:54;;;;;;;2.50;1.60;;;;;;;4.47;100.00;100864.09;4993475;28;20070;-81
2023/03/06 00:10:25;;;;;;;1.92;1.10;;;;;;;4.48;100.00;100858.66;4976767;28;20030;-80
2023/03/06 00:13:00;;;;;;;1.83;1.30;;;;;;;4.50;100.00;100855.84;4961500;28;20030;-81
2023/03/06 00:15:26;;;;;;;3.92;1.20;;;;;;;4.51;100.00;100852.22;4977047;28;20038;-80
2023/03/06 00:17:52;;;;;;;2.70;1.38;;;;;;;4.48;100.00;100841.84;4977205;28;20088;-81
2023/03/06 00:20:19;;;;;;;1.63;1.20;;;;;;;4.55;100.00;100840.31;4992629;28;20034;-84
2023/03/06 00:22:45;;;;;;;2.63;1.30;;;;;;;4.62;100.00;100844.13;4977207;28;20535;-80
2023/03/06 00:25:17;;;;;;;1.85;1.23;;;;;;;4.62;100.00;100844.13;4961330;28;20034;-83
2023/03/06 00:27:42;;;;;;;1.38;1.00;;;;;;;4.63;100.00;100841.34;4960926;28;20187;-80
2023/03/06 00:30:14;;;;;;;1.83;1.00;;;;;;;4.66;100.00;100842.00;4977693;28;20540;-82
2023/03/06 00:32:39;;;;;;;1.02;0.80;;;;;;;4.66;100.00;100834.91;4961383;28;20030;-79
2023/03/06 00:35:08;;;;;;;1.20;0.88;;;;;;;4.69;100.00;100836.44;4976779;28;20035;-80
2023/03/06 00:37:36;;;;;;;3.13;1.30;;;;;;;4.67;100.00;100827.75;4976667;28;20030;-80
2023/03/06 00:40:07;;;;;;;2.42;1.30;;;;;;;4.69;100.00;100820.47;4976719;28;20034;-81
2023/03/06 00:42:32;;;;;;;1.52;1.05;;;;;;;4.68;100.00;100824.91;4961231;28;20068;-81
2023/03/06 00:44:58;;;;;;;1.27;1.00;;;;;;;4.66;100.00;100812.72;4993215;28;20022;-81
2023/03/06 00:47:24;;;;;;;3.67;1.00;;;;;;;4.42;100.00;100779.31;4992907;28;20032;-82
2023/03/06 00:49:52;;;;;;;0.60;0.60;;;;;;;4.50;100.00;100803.44;4960990;28;20393;-83
2023/03/06 00:52:18;;;;;;;1.88;0.90;;;;;;;4.35;100.00;100787.00;4993260;28;20482;-81
2023/03/06 00:54:46;;;;;;;1.23;0.80;;;;;;;4.43;100.00;100809.44;4992714;28;20038;-80
2023/03/06 00:57:12;;;;;;;1.38;0.82;;;;;;;4.39;100.00;100798.19;4977005;28;20069;-81
2023/03/06 00:59:39;;;;;;;1.13;0.85;;;;;;;4.44;100.00;100793.31;4993697;28;20104;-83
2023/03/06 01:02:05;;;;;;;1.45;1.02;;;;;;;4.53;100.00;100789.03;4992580;28;20054;-81
2023/03/06 01:04:34;;;;;;;2.20;1.02;;;;;;;4.59;100.00;100791.13;4993036;28;20026;-80
2023/03/06 01:06:59;;;;;;;1.10;0.90;;;;;;;4.60;100.00;100787.47;4976351;28;20128;-81
2023/03/06 01:09:25;;;;;;;3.33;1.15;;;;;;;4.57;100.00;100777.09;4992607;28;20058;-81
2023/03/06 01:11:51;;;;;;;1.45;0.90;;;;;;;4.48;100.00;100778.78;4992661;28;20042;-81
2023/03/06 01:14:19;;;;;;;2.67;1.08;;;;;;;4.41;100.00;100769.63;4960492;28;20118;-80
2023/03/06 01:16:45;;;;;;;5.00;0.90;;;;;;;4.34;100.00;100777.34;4993762;28;20045;-80
2023/03/06 01:19:11;;;;;;;1.05;0.88;;;;;;;4.34;100.00;100768.47;4992341;28;20125;-80
2023/03/06 01:21:37;;;;;;;1.30;1.00;;;;;;;4.40;100.00;100763.47;4960684;28;20132;-81
2023/03/06 01:24:03;;;;;;;1.63;1.00;;;;;;;4.52;100.00;100758.03;4960601;28;20030;-81
2023/03/06 01:26:32;;;;;;;0.98;0.82;;;;;;;4.61;100.00;100759.88;4992339;28;20026;-80
2023/03/06 01:29:01;;;;;;;1.20;0.77;;;;;;;4.65;100.00;100750.63;4993580;28;20034;-79
2023/03/06 01:31:26;;;;;;;1.08;0.90;;;;;;;4.73;100.00;100758.78;4993578;28;20029;-84
2023/03/06 01:33:57;;;;;;;2.33;1.00;;;;;;;4.71;100.00;100742.09;4992033;28;20100;-80
2023/03/06 01:36:23;;;;;;;3.42;0.90;;;;;;;4.78;100.00;100759.19;4960507;28;20108;-80
2023/03/06 01:38:49;;;;;;;1.02;0.80;;;;;;;4.77;100.00;100754.84;4992529;28;20389;-87
2023/03/06 01:41:14;;;;;;;1.33;1.00;;;;;;;4.78;100.00;100743.22;4975810;28;20031;-85
2023/03/06 01:43:45;;;;;;;1.77;0.90;;;;;;;4.79;100.00;100752.03;4976327;28;20035;-80
2023/03/06 01:46:22;;;;;;;1.98;0.95;;;;;;;4.81;100.00;100750.09;4991911;28;20042;-82
2023/03/06 01:48:53;;;;;;;4.47;1.00;;;;;;;4.78;100.00;100743.22;4976427;28;20038;-80
2023/03/06 01:51:24;;;;;;;1.35;0.93;;;;;;;4.80;100.00;100740.44;4978617;28;20026;-84
2023/03/06 01:53:52;;;;;;;0.82;0.82;;;;;;;4.83;100.00;100740.13;4980017;28;20038;-81
2023/03/06 01:56:21;;;;;;;2.75;0.90;;;;;;;4.84;100.00;100742.69;4964006;28;20054;-83
2023/03/06 01:58:50;;;;;;;1.77;0.80;;;;;;;4.78;100.00;100729.91;4947842;28;20037;-87
2023/03/06 02:01:16;;;;;;;1.52;0.80;;;;;;;4.79;100.00;100730.72;4979623;28;20045;-80
2023/03/06 02:03:44;;;;;;;1.48;0.80;;;;;;;4.79;100.00;100726.28;4979924;28;20034;-80
2023/03/06 02:06:10;;;;;;;1.10;0.90;;;;;;;4.80;100.00;100730.59;4980106;28;20469;-84
2023/03/06 02:08:36;;;;;;;0.90;0.70;;;;;;;4.77;100.00;100728.22;4995532;28;20077;-79
2023/03/06 02:11:07;;;;;;;1.27;1.00;;;;;;;4.78;100.00;100723.72;4995741;28;20038;-80
2023/03/06 02:13:39;;;;;;;2.63;1.00;;;;;;;4.78;100.00;100723.72;4996472;28;20026;-79
2023/03/06 02:16:07;;;;;;;2.25;1.10;;;;;;;4.76;100.00;100715.91;4995831;28;20074;-79
2023/03/06 02:18:41;;;;;;;4.60;1.08;;;;;;;4.79;100.00;100718.28;4979899;28;20405;-85
2023/03/06 02:21:09;;;;;;;2.15;0.80;;;;;;;4.73;100.00;100702.84;4946968;28;20034;-80
2023/03/06 02:24:14;;;;;;;1.52;0.77;;;;;;;4.83;100.00;100713.50;4995780;28;20040;-79
2023/03/06 02:26:41;;;;;;;1.08;0.80;;;;;;;4.80;100.00;100703.97;4965350;28;20042;-83
2023/03/06 02:29:10;;;;;;;2.15;1.95;;;;;;;4.83;100.00;100700.19;4995705;28;20033;-80
2023/03/06 02:31:36;;;;;;;1.98;0.90;;;;;;;4.88;100.00;100707.75;4979738;28;20465;-80
2023/03/06 02:34:14;;;;;;;0.80;0.80;;;;;;;4.92;100.00;100698.50;4994752;28;20037;-84
2023/03/06 02:36:44;;;;;;;4.20;1.08;;;;;;;4.96;100.00;100695.41;4996462;28;20116;-80
2023/03/06 02:39:11;;;;;;;3.15;0.90;;;;;;;4.97;100.00;100682.91;4995110;28;20469;-79
2023/03/06 02:41:36;;;;;;;1.10;0.80;;;;;;;4.88;100.00;100662.47;4978716;28;20034;-81
2023/03/06 02:44:02;;;;;;;1.95;0.90;;;;;;;4.97;100.00;100669.59;4995336;28;20033;-79
2023/03/06 02:46:30;;;;;;;1.52;0.90;;;;;;;4.97;100.00;100667.78;4963116;28;20028;-81
2023/03/06 02:48:56;;;;;;;1.00;0.90;;;;;;;4.97;100.00;100659.78;4995524;28;20031;-79
2023/03/06 02:51:22;;;;;;;2.92;1.00;;;;;;;5.00;100.00;100661.31;4978956;28;20499;-84
2023/03/06 02:53:48;;;;;;;1.90;0.98;;;;;;;4.98;100.00;100656.16;4946961;28;20125;-80
2023/03/06 02:56:18;;;;;;;1.23;0.80;;;;;;;4.86;100.00;100630.63;4962986;28;20420;-80
2023/03/06 02:58:44;;;;;;;2.42;0.98;;;;;;;5.01;100.00;100641.69;4946593;28;20392;-81
2023/03/06 03:01:10;;;;;;;0.75;0.70;;;;;;;5.02;100.00;100643.38;4978229;28;20026;-83
2023/03/06 03:03:41;;;;;;;1.13;0.82;;;;;;;5.03;100.00;100634.41;4994676;28;20117;-79
2023/03/06 03:06:07;;;;;;;1.88;1.00;;;;;;;5.03;100.00;100634.41;4978266;28;20584;-80
2023/03/06 03:08:33;;;;;;;2.28;0.80;;;;;;;4.99;100.00;100630.34;4978853;28;20105;-80
2023/03/06 03:10:59;;;;;;;3.72;1.10;;;;;;;5.02;100.00;100630.88;4978139;28;20404;-81
2023/03/06 03:13:25;;;;;;;3.05;1.15;;;;;;;5.00;100.00;100626.69;4962002;28;20037;-82
2023/03/06 03:16:06;;;;;;;2.58;1.02;;;;;;;5.00;100.00;100624.00;4978262;28;20050;-80
2023/03/06 03:18:32;;;;;;;2.38;0.98;;;;;;;4.91;100.00;100603.56;4979016;28;20038;-79
2023/03/06 03:20:58;;;;;;;1.20;0.80;;;;;;;4.92;100.00;100600.78;4977841;28;20416;-81
2023/03/06 03:23:25;;;;;;;1.42;0.85;;;;;;;4.96;100.00;100610.16;4978235;28;20030;-80
2023/03/06 03:25:50;;;;;;;1.00;0.80;;;;;;;4.98;100.00;100602.03;4962485;28;20035;-79
2023/03/06 03:28:16;;;;;;;0.77;0.77;;;;;;;4.93;100.00;100594.44;4994059;28;20034;-81
2023/03/06 03:30:42;;;;;;;0.82;0.70;;;;;;;4.99;100.00;100593.88;4994273;28;20046;-80
2023/03/06 03:33:11;;;;;;;2.05;0.60;;;;;;;5.02;100.00;100587.41;4977659;28;20034;-88
2023/03/06 03:35:37;;;;;;;1.75;0.68;;;;;;;4.92;100.00;100570.59;4994094;28;20050;-80
2023/03/06 03:38:03;;;;;;;1.27;0.60;;;;;;;4.95;100.00;100572.97;4994404;28;20081;-80
2023/03/06 03:40:34;;;;;;;3.05;0.70;;;;;;;4.93;100.00;100582.97;4977470;28;20505;-85
2023/03/06 03:43:00;;;;;;;0.73;0.70;;;;;;;4.77;100.00;100563.06;4962776;28;20388;-80
2023/03/06 03:45:25;;;;;;;0.65;0.65;;;;;;;4.72;100.00;100564.50;4977822;28;20022;-85
2023/03/06 03:47:53;;;;;;;0.88;0.70;;;;;;;4.59;100.00;100554.13;4994055;28;20133;-81
2023/03/06 03:50:19;;;;;;;1.45;0.60;;;;;;;4.53;100.00;100549.38;4962046;28;20034;-83
2023/03/06 03:52:44;;;;;;;1.40;0.88;;;;;;;4.54;100.00;100559.03;4962002;28;20034;-80
2023/03/06 03:55:10;;;;;;;1.10;0.80;;;;;;;4.52;100.00;100550.34;4993754;28;20540;-80
2023/03/06 03:57:42;;;;;;;1.00;0.80;;;;;;;4.66;100.00;100560.56;4978624;28;20469;-79
2023/03/06 04:00:10;;;;;;;1.20;0.80;;;;;;;4.71;100.00;100552.13;4993749;28;20026;-82
2023/03/06 04:02:40;;;;;;;0.95;0.80;;;;;;;4.76;100.00;100548.09;4993778;28;20459;-80
2023/03/06 04:05:05;;;;;;;1.05;0.80;;;;;;;4.78;100.00;100543.44;4977541;28;20460;-79
2023/03/06 04:07:34;;;;;;;0.90;0.80;;;;;;;4.79;100.00;100539.81;4977273;28;20057;-84
2023/03/06 04:09:59;;;;;;;0.98;0.88;;;;;;;4.82;100.00;100539.50;4993714;28;20030;-80
2023/03/06 04:12:25;;;;;;;2.38;1.00;;;;;;;4.72;100.00;100529.88;4977047;28;20494;-80
2023/03/06 04:14:50;;;;;;;0.90;0.80;;;;;;;4.69;100.00;100536.31;4960220;28;20030;-82
2023/03/06 04:17:19;;;;;;;1.92;0.80;;;;;;;4.60;100.00;100522.03;4993114;28;20429;-80
2023/03/06 04:19:44;;;;;;;1.35;0.70;;;;;;;4.70;100.00;100530.00;4977758;28;20034;-81
2023/03/06 04:22:10;;;;;;;1.63;0.70;;;;;;;4.72;100.00;100519.22;4976968;28;20038;-79
2023/03/06 04:24:36;;;;;;;0.68;0.68;;;;;;;4.73;100.00;100513.72;4994399;28;20029;-86
2023/03/06 04:27:01;;;;;;;0.77;0.60;;;;;;;4.75;100.00;100522.41;4961246;28;20512;-81
2023/03/06 04:29:27;;;;;;;0.93;0.70;;;;;;;4.75;100.00;100521.56;4992629;28;20030;-80
2023/03/06 04:31:53;;;;;;;2.95;0.65;;;;;;;4.69;100.00;100507.03;4993976;28;20393;-83
2023/03/06 04:34:18;;;;;;;4.65;1.17;;;;;;;4.65;100.00;100515.44;4961298;28;20034;-81
2023/03/06 04:36:46;;;;;;;0.50;0.50;;;;;;;4.72;100.00;100521.88;4960979;28;20053;-80
2023/03/06 04:39:12;;;;;;;2.47;0.82;;;;;;;4.82;100.00;100518.19;4993208;28;20050;-80
2023/03/06 04:41:47;;;;;;;0.60;0.60;;;;;;;4.92;100.00;100519.97;4960982;28;20088;-84
2023/03/06 04:44:13;;;;;;;1.10;0.77;;;;;;;4.90;100.00;100498.00;4977164;28;20536;-81
2023/03/06 04:46:38;;;;;;;2.30;0.70;;;;;;;4.98;100.00;100508.75;4976896;28;20065;-82
2023/03/06 04:49:04;;;;;;;2.42;0.70;;;;;;;4.98;100.00;100506.94;4976646;28;20080;-80
2023/03/06 04:51:30;;;;;;;1.30;0.60;;;;;;;4.93;100.00;100505.69;4992675;28;20428;-79
2023/03/06 04:53:55;;;;;;;0.57;0.57;;;;;;;4.93;100.00;100500.38;4977178;28;20480;-80
2023/03/06 04:56:21;;;;;;;0.50;0.50;;;;;;;4.87;100.00;100488.47;4992666;28;20488;-79
2023/03/06 04:58:49;;;;;;;0.43;0.43;;;;;;;4.83;100.00;100495.88;4993042;28;20058;-80
2023/03/06 05:01:15;;;;;;;4.90;2.20;;;;;;;4.75;100.00;100485.13;4960606;28;20033;-84
2023/03/06 05:03:43;;;;;;;0.50;0.50;;;;;;;4.76;100.00;100480.63;4960706;28;20031;-80
2023/03/06 05:06:09;;;;;;;0.60;0.60;;;;;;;4.70;100.00;100479.38;4961259;28;20503;-80
2023/03/06 05:08:38;;;;;;;0.60;0.60;;;;;;;4.67;100.00;100487.66;4975825;28;20034;-80
2023/03/06 05:11:03;;;;;;;0.98;0.70;;;;;;;4.63;100.00;100492.47;4976656;28;20068;-84
2023/03/06 05:13:29;;;;;;;1.20;1.10;;;;;;;4.64;100.00;100485.31;4976930;28;20030;-82
2023/03/06 05:16:02;;;;;;;1.33;0.70;;;;;;;4.61;100.00;100482.94;4976674;28;20370;-80
2023/03/06 05:18:28;;;;;;;1.17;0.88;;;;;;;4.52;100.00;100467.81;4944790;28;20038;-84
2023/03/06 05:20:58;;;;;;;1.38;0.77;;;;;;;4.60;100.00;100473.25;4992341;28;20103;-79
2023/03/06 05:23:35;;;;;;;1.40;0.70;;;;;;;4.61;100.00;100467.78;4977132;28;20030;-81
2023/03/06 05:26:04;;;;;;;1.40;1.05;;;;;;;4.63;100.00;100462.28;4963675;28;20408;-79
2023/03/06 05:28:33;;;;;;;1.70;0.68;;;;;;;4.73;100.00;100465.78;4964688;28;20038;-81
2023/03/06 05:30:58;;;;;;;2.15;0.60;;;;;;;4.80;100.00;100464.22;4979960;28;20026;-83
2023/03/06 05:33:25;;;;;;;3.33;0.70;;;;;;;4.84;100.00;100464.75;4964500;28;20038;-84
2023/03/06 05:35:50;;;;;;;1.73;0.70;;;;;;;4.81;100.00;100463.22;4980166;28;20532;-80
2023/03/06 05:38:17;;;;;;;0.50;0.50;;;;;;;4.77;100.00;100464.50;4996483;28;20105;-81
2023/03/06 05:40:43;;;;;;;1.92;0.70;;;;;;;4.73;100.00;100460.44;4979792;28;20076;-80
2023/03/06 05:43:10;;;;;;;0.82;0.70;;;;;;;4.67;100.00;100458.38;4995883;28;20501;-84
2023/03/06 05:45:37;;;;;;;2.25;0.60;;;;;;;4.63;100.00;100446.31;4964146;28;20034;-83
2023/03/06 05:48:03;;;;;;;2.35;1.10;;;;;;;4.71;100.00;100453.59;4996032;28;20041;-80
2023/03/06 05:50:29;;;;;;;1.20;0.70;;;;;;;4.74;100.00;100450.66;4964166;28;20042;-79
2023/03/06 05:52:55;;;;;;;1.05;0.55;;;;;;;4.80;100.00;100448.22;4995934;28;20040;-80
2023/03/06 05:55:22;;;;;;;0.55;0.50;;;;;;;4.82;100.00;100443.59;4995415;28;20030;-80
2023/03/06 05:57:49;;;;;;;0.50;0.50;;;;;;;4.84;100.00;100446.97;4995075;28;20038;-80
2023/03/06 06:00:15;;;;;;;2.35;0.60;;;;;;;4.84;100.00;100433.66;4963435;28;20418;-80
2023/03/06 06:02:42;;;;;;;0.80;0.70;;;;;;;4.88;100.00;100436.84;4995954;28;20023;-79
2023/03/06 06:05:09;;;;;;;1.42;0.60;;;;;;;4.92;100.00;100424.94;4995877;28;20109;-79
2023/03/06 06:07:35;;;;;;;2.15;0.70;;;;;;;4.95;100.00;100431.75;4995750;28;20031;-79
2023/03/06 06:10:01;;;;;;;1.98;0.60;;;;;;;4.93;100.00;100423.94;4995573;28;20041;-80
2023/03/06 06:12:27;;;;;;;0.60;0.60;;;;;;;4.87;100.00;100415.66;4979190;28;20030;-80
2023/03/06 06:14:56;;;;;;;1.23;0.70;;;;;;;4.97;100.00;100430.63;4995860;28;20561;-82
2023/03/06 06:17:21;;;;;;;0.70;0.70;;;;;;;4.93;100.00;100423.09;4979729;28;20042;-80
2023/03/06 06:19:47;;;;;;;1.08;0.80;;;;;;;4.88;100.00;100420.03;4979154;28;20038;-80
2023/03/06 06:22:12;;;;;;;0.98;0.88;;;;;;;4.80;100.00;100407.44;4995585;28;20068;-79
2023/03/06 06:24:38;;;;;;;0.60;0.60;;;;;;;4.73;100.00;100401.84;4979200;28;20045;-85
2023/03/06 06:27:04;;;;;;;1.25;0.70;;;;;;;4.65;100.00;100416.91;4979326;28;20034;-79
2023/03/06 06:29:30;;;;;;;1.42;0.70;;;;;;;4.54;100.00;100407.25;4995758;28;20166;-80
2023/03/06 06:31:56;;;;;;;0.88;0.63;;;;;;;4.47;100.00;100407.00;4995221;28;20031;-80
2023/03/06 06:34:22;;;;;;;1.40;0.70;;;;;;;4.38;100.00;100410.53;4979250;28;20030;-79
2023/03/06 06:36:49;;;;;;;0.60;0.60;;;;;;;4.31;100.00;100414.75;4978549;28;20042;-80
2023/03/06 06:39:16;;;;;;;0.70;0.70;;;;;;;4.24;100.00;100419.81;4962961;28;20080;-83
2023/03/06 06:41:42;;;;;;;1.90;0.82;;;;;;;4.16;100.00;100393.91;4996279;28;20026;-80
2023/03/06 06:44:12;;;;;;;0.93;0.80;;;;;;;4.30;100.00;100397.94;4978727;28;20209;-79
2023/03/06 06:46:41;;;;;;;1.83;0.95;;;;;;;4.36;100.00;100392.03;4995550;28;20461;-79
2023/03/06 06:49:07;;;;;;;1.20;1.10;;;;;;;4.40;100.00;100388.13;4994911;28;20034;-80
2023/03/06 06:51:32;;;;;;;2.25;1.00;;;;;;;4.53;100.00;100397.59;4978765;28;20084;-82
2023/03/06 06:53:59;;;;;;;4.28;2.50;;;;;;;4.59;100.00;100389.03;4996138;28;20470;-81
2023/03/06 06:56:24;;;;;;;21.40;10.25;;;;;;;4.67;100.00;100383.81;4994977;28;20706;-82
2023/03/06 06:58:51;;;;;;;7.85;3.92;;;;;;;4.68;100.00;100374.00;4978658;28;20069;-81
2023/03/06 07:01:17;;;;;;;9.38;4.15;;;;;;;4.81;100.00;100383.31;4978211;28;20033;-81
2023/03/06 07:03:43;;;;;;;10.68;6.15;;;;;;;4.85;100.00;100392.69;4978548;28;20455;-82
2023/03/06 07:06:08;;;;;;;11.15;6.65;;;;;;;4.84;100.00;100382.19;4962963;28;20030;-83
2023/03/06 07:08:34;;;;;;;6.25;5.55;;;;;;;4.78;100.00;100383.59;4995706;28;20030;-81
2023/03/06 07:11:09;;;;;;;5.03;3.08;;;;;;;4.75;100.00;100377.75;4994401;28;20100;-87
2023/03/06 07:13:37;;;;;;;1.55;1.42;;;;;;;4.68;100.00;100379.31;4994524;28;20156;-81
2023/03/06 07:16:03;;;;;;;2.10;1.48;;;;;;;4.50;100.00;100373.91;4978075;28;20034;-81
2023/03/06 07:18:29;;;;;;;4.90;1.70;;;;;;;4.22;100.00;100365.88;4994131;28;20069;-81
2023/03/06 07:20:56;;;;;;;4.25;2.10;;;;;;;4.06;100.00;100373.63;4961405;28;20061;-82
2023/03/06 07:23:22;;;;;;;2.13;1.73;;;;;;;3.85;100.00;100349.88;4961650;28;20022;-80
2023/03/06 07:25:48;;;;;;;3.08;2.50;;;;;;;3.92;100.00;100373.09;4994331;28;20066;-80
2023/03/06 07:28:16;;;;;;;2.83;1.67;;;;;;;3.91;100.00;100362.59;4978086;28;20064;-81
2023/03/06 07:30:42;;;;;;;2.53;1.40;;;;;;;3.97;100.00;100349.56;4977937;28;20054;-80
2023/03/06 07:33:08;;;;;;;1.20;1.10;;;;;;;4.24;100.00;100358.59;4994190;28;20473;-85
2023/03/06 07:35:34;;;;;;;3.35;1.80;;;;;;;4.48;100.00;100362.59;4962365;28;20039;-80
2023/03/06 07:38:00;;;;;;;2.40;1.67;;;;;;;4.57;100.00;100362.53;4994357;28;20392;-81
2023/03/06 07:40:26;;;;;;;2.05;1.38;;;;;;;4.60;100.00;100346.28;4977870;28;20031;-80
2023/03/06 07:42:53;;;;;;;1.77;1.10;;;;;;;4.66;100.00;100346.66;4977600;28;20093;-81
2023/03/06 07:45:20;;;;;;;2.38;1.30;;;;;;;4.86;100.00;100353.56;4993553;28;20034;-83
2023/03/06 07:47:46;;;;;;;2.13;1.40;;;;;;;5.06;100.00;100367.63;4976972;28;20487;-81
2023/03/06 07:50:12;;;;;;;2.15;1.23;;;;;;;5.22;100.00;100353.66;4993789;28;20026;-81
2023/03/06 07:52:40;;;;;;;3.90;1.38;;;;;;;5.30;100.00;100356.38;4979610;28;20393;-80
2023/03/06 07:55:06;;;;;;;2.05;1.23;;;;;;;5.32;100.00;100356.22;4963804;28;20072;-81
2023/03/06 07:57:31;;;;;;;1.25;0.80;;;;;;;5.32;100.00;100348.22;4995510;28;20030;-80
2023/03/06 07:59:57;;;;;;;1.77;0.70;;;;;;;5.38;100.00;100351.13;4995642;28;20037;-80
2023/03/06 08:02:23;;;;;;;1.58;0.85;;;;;;;5.41;100.00;100350.00;4962204;28;20469;-81
2023/03/06 08:04:53;;;;;;;1.20;1.00;;;;;;;5.45;100.00;100351.34;4978222;28;20039;-80
2023/03/06 08:07:18;;;;;;;1.63;0.93;;;;;;;5.52;100.00;100357.75;4994005;28;20042;-78
2023/03/06 08:09:44;;;;;;;2.05;1.00;;;;;;;5.63;100.00;100346.00;4977514;28;20128;-81
2023/03/06 08:12:10;;;;;;;1.42;1.20;;;;;;;5.81;100.00;100351.31;4977390;28;20034;-81
2023/03/06 08:14:35;;;;;;;2.00;0.90;;;;;;;5.91;100.00;100344.91;4993272;28;20057;-86
2023/03/06 08:17:01;;;;;;;2.35;1.00;;;;;;;6.21;100.00;100349.97;4977494;28;20026;-83
2023/03/06 08:19:26;;;;;;;0.80;0.80;;;;;;;6.41;100.00;100343.41;4977459;28;20034;-81
2023/03/06 08:21:52;;;;;;;1.17;0.88;;;;;;;6.63;100.00;100347.34;4976593;28;20429;-87
2023/03/06 08:24:19;;;;;;;1.65;1.20;;;;;;;7.26;100.00;100343.38;4960788;28;20061;-81
2023/03/06 08:26:45;;;;;;;2.35;1.08;;;;;;;7.55;100.00;100340.22;4992907;28;20053;-80
2023/03/06 08:29:12;;;;;;;1.92;0.88;;;;;;;7.49;100.00;100336.38;4977274;28;20034;-80
2023/03/06 08:31:42;;;;;;;2.53;1.00;;;;;;;7.34;100.00;100346.06;4976029;28;20030;-80
2023/03/06 08:34:21;;;;;;;5.03;1.02;;;;;;;7.30;100.00;100351.91;4993204;28;20108;-81
2023/03/06 08:36:47;;;;;;;1.50;1.00;;;;;;;7.24;100.00;100348.88;4990361;28;20100;-81
2023/03/06 08:39:13;;;;;;;1.40;0.60;;;;;;;7.12;100.00;100347.53;4993104;28;20113;-80
2023/03/06 08:41:39;;;;;;;0.95;0.70;;;;;;;7.02;100.00;100338.81;4977152;28;20458;-80
2023/03/06 08:44:04;;;;;;;3.13;0.82;;;;;;;7.00;100.00;100344.31;4993473;28;20026;-79
2023/03/06 08:46:30;;;;;;;2.08;1.10;;;;;;;7.02;100.00;100339.66;4993018;28;20027;-79
2023/03/06 08:48:56;;;;;;;0.90;0.70;;;;;;;7.10;100.00;100327.31;4945390;28;20046;-79
2023/03/06 08:51:22;;;;;;;1.95;0.90;;;;;;;7.23;100.00;100325.81;4977273;28;20388;-79
2023/03/06 08:53:49;;;;;;;3.35;0.90;;;;;;;7.43;100.00;100320.97;4993257;28;20164;-80
2023/03/06 08:56:26;;;;;;;0.80;0.70;;;;;;;7.79;100.00;100335.88;4976832;28;20031;-78
2023/03/06 08:58:53;;;;;;;1.60;0.90;;;;;;;8.23;100.00;100338.16;4976960;28;20030;-78
2023/03/06 09:01:24;;;;;;;1.77;0.70;;;;;;;8.32;100.00;100323.75;4994316;28;20026;-79
2023/03/06 09:03:50;;;;;;;1.77;0.90;;;;;;;8.46;100.00;100322.22;4977104;28;20125;-79
2023/03/06 09:06:16;;;;;;;2.90;1.00;;;;;;;8.65;100.00;100323.66;4977053;28;20113;-78
2023/03/06 09:08:43;;;;;;;2.70;1.00;;;;;;;8.63;100.00;100323.84;4993037;28;20393;-79
2023/03/06 09:11:13;;;;;;;1.38;0.75;;;;;;;8.91;100.00;100326.06;4977304;28;20031;-78
2023/03/06 09:13:39;;;;;;;2.92;0.90;;;;;;;9.56;100.00;100314.91;4961050;28;20548;-78
2023/03/06 09:16:06;;;;;;;2.33;1.00;;;;;;;10.11;100.00;100319.09;4976659;28;20056;-78
2023/03/06 09:18:31;;;;;;;0.85;0.73;;;;;;;10.94;100.00;100321.69;4977382;28;20480;-79
2023/03/06 09:20:57;;;;;;;3.85;1.15;;;;;;;11.29;100.00;100314.63;4992880;28;20504;-78
2023/03/06 09:23:22;;;;;;;2.67;0.90;;;;;;;11.76;100.00;100313.19;4992919;28;20044;-77
2023/03/06 09:25:55;;;;;;;1.23;0.90;;;;;;;12.40;100.00;100298.75;4976588;28;20461;-78
2023/03/06 09:28:21;;;;;;;2.70;0.93;;;;;;;12.89;100.00;100307.69;4976683;28;20046;-77
2023/03/06 09:30:47;;;;;;;2.20;0.90;;;;;;;13.26;100.00;100284.78;4976952;28;20061;-80
2023/03/06 09:33:13;;;;;;;2.42;0.82;;;;;;;12.95;100.00;100293.38;4992626;28;20539;-78
2023/03/06 09:36:01;;;;;;;3.35;0.90;;;;;;;12.74;100.00;100291.66;4993903;28;20054;-79
2023/03/06 09:38:27;;;;;;;4.05;1.20;;;;;;;12.03;100.00;100297.25;4992702;28;20038;-79
2023/03/06 09:41:14;;;;;;;2.50;0.90;;;;;;;11.46;100.00;100296.38;4992427;28;20034;-79
2023/03/06 09:43:46;;;;;;;2.05;1.15;;;;;;;11.14;100.00;100286.91;4992852;28;20535;-79
2023/03/06 09:46:17;;;;;;;1.63;0.77;;;;;;;10.72;100.00;100280.47;4992856;28;20039;-79
2023/03/06 09:48:53;;;;;;;1.52;0.75;;;;;;;10.58;100.00;100276.75;4976686;28;20068;-81
2023/03/06 09:51:23;;;;;;;0.98;0.77;;;;;;;10.44;100.00;100256.13;4992297;28;20030;-77
2023/03/06 09:54:12;;;;;;;1.17;0.73;;;;;;;10.56;100.00;100282.34;4976568;28;20070;-79
2023/03/06 09:56:38;;;;;;;2.22;0.70;;;;;;;10.67;100.00;100282.88;4991433;28;20070;-80
2023/03/06 09:59:13;;;;;;;4.68;1.00;;;;;;;11.58;100.00;100277.81;4975952;28;20174;-80
2023/03/06 10:01:49;;;;;;;2.65;0.80;;;;;;;11.97;100.00;100277.34;4975978;28;20400;-81
2023/03/06 10:04:27;;;;;;;2.05;0.60;;;;;;;11.68;100.00;100286.41;4975920;28;20027;-78
2023/03/06 10:06:55;;;;;;;1.10;1.00;;;;;;;11.23;100.00;100285.78;4992456;28;20050;-78
2023/03/06 10:09:23;;;;;;;1.20;0.95;;;;;;;11.06;100.00;100278.97;4992199;28;20022;-80
2023/03/06 10:12:03;;;;;;;1.80;0.82;;;;;;;12.37;100.00;100274.88;4993188;28;20376;-78
2023/03/06 10:14:32;;;;;;;2.05;0.90;;;;;;;12.31;100.00;100262.22;4995732;28;20454;-77
2023/03/06 10:16:58;;;;;;;0.57;0.50;;;;;;;11.64;100.00;100244.72;4979742;28;20040;-76
2023/03/06 10:19:32;;;;;;;2.45;1.00;;;;;;;12.59;100.00;100250.50;4995335;28;20030;-77
2023/03/06 10:22:19;;;;;;;2.42;0.88;;;;;;;13.19;100.00;100252.31;4963494;28;20038;-78
2023/03/06 10:24:52;;;;;;;1.20;0.90;;;;;;;14.00;100.00;100245.91;4995812;28;20026;-77
2023/03/06 10:27:36;;;;;;;1.20;1.10;;;;;;;16.82;92.75;100249.91;4979564;28;20034;-79
2023/03/06 10:30:23;;;;;;;2.63;0.80;;;;;;;17.11;85.42;100246.38;4995635;28;20042;-80
2023/03/06 10:32:57;;;;;;;1.02;0.70;;;;;;;16.65;84.29;100234.25;4995681;28;20034;-77
2023/03/06 10:35:30;;;;;;;1.58;0.88;;;;;;;15.00;90.05;100236.59;4979829;28;20073;-80
2023/03/06 10:38:11;;;;;;;0.52;0.52;;;;;;;13.77;98.14;100238.25;4963251;28;20034;-78
2023/03/06 10:40:49;;;;;;;0.68;0.57;;;;;;;12.90;100.00;100234.63;4979303;28;20045;-78
2023/03/06 10:43:15;;;;;;;2.58;0.80;;;;;;;12.55;100.00;100239.28;4995083;28;20128;-78
2023/03/06 10:45:47;;;;;;;0.60;0.60;;;;;;;12.52;100.00;100242.41;4995405;28;20494;-77
2023/03/06 10:48:26;;;;;;;2.07;0.80;;;;;;;12.72;100.00;100229.78;4979207;28;20046;-79
2023/03/06 10:51:11;;;;;;;1.08;0.60;;;;;;;12.78;100.00;100228.19;4979210;28;20308;-80
2023/03/06 10:53:47;;;;;;;3.85;0.88;;;;;;;12.89;100.00;100229.44;4996559;28;20026;-80
2023/03/06 10:56:25;;;;;;;2.50;0.73;;;;;;;13.54;100.00;100229.75;4962779;28;20048;-80
2023/03/06 10:59:13;;;;;;;1.60;0.85;;;;;;;13.48;100.00;100231.41;4995210;28;20062;-78
2023/03/06 11:01:40;;;;;;;3.22;0.70;;;;;;;12.70;95.33;100225.63;4994998;28;20030;-78
2023/03/06 11:04:26;;;;;;;2.20;0.65;;;;;;;11.73;100.00;100223.88;4978864;28;20058;-77
2023/03/06 11:07:13;;;;;;;1.33;0.63;;;;;;;10.93;100.00;100218.66;4994854;28;20033;-77
2023/03/06 11:09:43;;;;;;;0.90;0.70;;;;;;;10.55;100.00;100220.69;4978926;28;20041;-77
2023/03/06 11:12:21;;;;;;;1.05;0.65;;;;;;;10.43;100.00;100222.22;4962510;28;20447;-77
2023/03/06 11:15:25;;;;;;;3.88;0.75;;;;;;;10.98;100.00;100213.53;4979074;28;20068;-77
2023/03/06 11:18:19;;;;;;;4.45;0.75;;;;;;;12.00;100.00;100206.06;4991249;28;20062;-78
2023/03/06 11:20:49;;;;;;;4.30;0.70;;;;;;;12.46;98.43;100202.72;4960727;28;20485;-78
2023/03/06 11:23:28;;;;;;;2.05;0.80;;;;;;;12.84;96.22;100204.94;4978179;28;20113;-78
2023/03/06 11:26:16;;;;;;;3.58;0.73;;;;;;;13.30;91.69;100198.78;4962233;28;20058;-76
2023/03/06 11:29:05;;;;;;;0.73;0.60;;;;;;;13.39;87.78;100178.66;4995865;28;20117;-78
2023/03/06 11:31:34;;;;;;;4.68;1.00;;;;;;;13.25;80.95;100203.94;4978298;28;20070;-78